Stations météo

réclame
Mon MeteoGroup
Adra, Espagne (8486): Température de l'air & dewpoint: 19.02.2018 00:00:00 - 25.02.2018 00:00:00 (CET)Adra, Espagne (8486): Vitesse du vent & gusts: 19.02.2018 00:00:00 - 25.02.2018 00:00:00 (CET)Adra, Espagne (8486): Direction du vent: 19.02.2018 00:00:00 - 25.02.2018 00:00:00 (CET)Adra, Espagne (8486): reduced air pressure: 19.02.2018 00:00:00 - 25.02.2018 00:00:00 (CET)Adra, Espagne (8486): Quantités de précipitations: 19.02.2018 00:00:00 - 25.02.2018 00:00:00 (CET)
Date & Time tt [°C] td [°C] ff [km/h] ff [knt] fx [km/h] fx [knt] dd ppp [hPa] rr [mm]
25.02.2018 00:00:00 11,2 6,1 2 1 7 4 NE 1013,6 0,0
24.02.2018 23:00:00 10,7 5,8 2 1 7 4 N 1013,3 0,0
24.02.2018 22:00:00 10,8 5,8 0 0 5 3 NNW 1012,7 0,0
24.02.2018 21:00:00 11,4 6,1 0 0 5 3 NNW 1012,2 0,0
24.02.2018 20:00:00 12,1 5,9 0 0 5 3 WNW 1011,7 0,0
24.02.2018 19:00:00 12,5 5,6 0 0 9 5 NNW 1011,0 -
24.02.2018 18:00:00 12,9 5,6 5 3 13 7 NW 1010,6 0,0
24.02.2018 17:00:00 13,7 5,1 4 2 14 7 SSW 1009,6 0,0
24.02.2018 16:00:00 14,5 4,5 5 3 14 8 SSW 1008,9 0,0
24.02.2018 15:00:00 15,8 4,8 3 2 14 8 S 1007,7 0,0
24.02.2018 14:00:00 14,0 3,4 4 2 13 7 SSE 1008,8 0,0
24.02.2018 13:00:00 13,4 3,4 6 4 15 8 SE 1009,6 -
24.02.2018 12:00:00 12,9 3,0 9 5 16 8 ESE 1009,5 0,0
24.02.2018 11:00:00 13,0 4,5 5 3 11 6 SE 1009,3 0,0
24.02.2018 10:00:00 12,4 3,6 3 2 13 7 NNE 1009,7 0,0
24.02.2018 09:00:00 11,4 4,1 3 1 9 5 NNE 1009,5 0,0
24.02.2018 08:00:00 9,2 3,8 1 0 9 5 N 1009,6 0,0
24.02.2018 07:00:00 9,4 3,6 3 1 13 7 NNE 1009,0 -
24.02.2018 06:00:00 9,9 4,5 1 1 9 5 NE 1008,3 0,0
24.02.2018 05:00:00 10,4 5,0 2 1 9 5 NNE 1008,4 0,0
24.02.2018 04:00:00 10,4 5,0 1 1 13 7 ENE 1008,4 0,0
24.02.2018 03:00:00 11,0 4,5 2 1 11 6 ENE 1008,7 0,0
24.02.2018 02:00:00 11,1 4,8 3 1 13 7 ENE 1008,7 0,0
24.02.2018 01:00:00 10,6 4,6 5 3 14 7 ENE 1008,8 -
24.02.2018 00:00:00 11,1 5,0 6 4 18 10 ENE 1008,6 0,0
23.02.2018 23:00:00 11,2 5,1 6 3 16 9 ENE 1008,5 0,0
23.02.2018 22:00:00 11,4 5,3 5 3 18 10 ENE 1008,2 0,0
23.02.2018 21:00:00 12,3 5,9 8 4 20 11 ENE 1007,9 0,0
23.02.2018 20:00:00 12,5 5,9 8 4 22 12 ENE 1007,7 0,0
23.02.2018 19:00:00 12,5 5,1 6 4 22 12 ENE 1007,4 -
23.02.2018 18:00:00 13,0 5,9 11 6 26 14 E 1007,0 0,0
23.02.2018 17:00:00 13,5 5,9 14 8 29 16 ESE 1006,1 0,0
23.02.2018 16:00:00 13,6 5,3 15 8 27 14 ESE 1006,4 0,0
23.02.2018 15:00:00 13,4 4,8 16 9 27 15 ESE 1006,8 0,0
23.02.2018 14:00:00 13,2 5,6 18 10 30 16 ESE 1007,5 0,0
23.02.2018 13:00:00 13,4 4,5 14 8 24 13 ESE 1007,9 -
23.02.2018 12:00:00 13,9 2,5 10 6 23 12 ESE 1008,2 0,0
23.02.2018 11:00:00 12,9 1,9 9 5 21 12 E 1007,8 0,0
23.02.2018 10:00:00 12,4 1,9 3 2 19 10 ENE 1007,9 0,0
23.02.2018 09:00:00 10,3 1,9 10 5 23 13 ENE 1008,2 0,0
23.02.2018 08:00:00 8,5 0,9 9 5 18 10 ENE 1007,9 0,0
23.02.2018 07:00:00 10,5 1,3 4 2 18 10 NE 1007,3 -
23.02.2018 06:00:00 11,3 2,1 8 5 16 9 NNE 1007,1 0,0
23.02.2018 05:00:00 11,5 0,9 7 4 14 8 N 1007,0 0,0
23.02.2018 04:00:00 11,4 1,3 4 2 16 9 ENE 1007,1 0,0
23.02.2018 03:00:00 11,3 2,1 5 3 16 9 ENE 1007,4 0,0
23.02.2018 02:00:00 12,3 3,2 6 3 19 11 N 1007,3 0,0
23.02.2018 01:00:00 12,7 4,8 4 2 24 13 NNE 1007,5 -
23.02.2018 00:00:00 11,7 5,8 5 3 21 12 NE 1007,6 0,0
22.02.2018 23:00:00 12,1 6,5 9 5 20 11 NNE 1007,2 0,0
22.02.2018 22:00:00 12,1 7,1 5 3 18 10 NE 1007,2 0,0
22.02.2018 21:00:00 11,5 7,4 2 1 8 4 N 1006,9 0,0
22.02.2018 20:00:00 12,2 8,1 3 2 21 11 N 1007,0 0,0
22.02.2018 19:00:00 13,5 8,5 16 9 31 17 W 1006,8 -
22.02.2018 18:00:00 13,4 8,3 21 11 35 19 W 1006,8 0,0
22.02.2018 17:00:00 13,0 8,7 18 10 40 22 WNW 1007,0 0,0
22.02.2018 16:00:00 13,0 8,1 21 12 35 19 W 1007,6 0,0
22.02.2018 15:00:00 12,6 7,8 18 10 34 18 WNW 1008,0 0,0
22.02.2018 14:00:00 12,3 8,3 14 8 27 15 WNW 1009,4 0,0
22.02.2018 13:00:00 12,1 8,0 12 6 20 11 WNW 1010,1 -
22.02.2018 12:00:00 12,4 6,4 6 4 11 6 SW 1010,8 0,0
22.02.2018 11:00:00 13,4 7,1 3 1 11 6 SSE 1010,0 0,0
22.02.2018 10:00:00 11,6 7,7 5 3 11 6 NE 1011,3 0,0
22.02.2018 09:00:00 11,3 7,6 1 1 5 3 NE 1011,4 0,0
22.02.2018 08:00:00 10,8 7,4 3 2 5 3 NNE 1010,9 0,0
22.02.2018 07:00:00 10,7 7,6 2 1 8 4 NNE 1010,8 -
22.02.2018 06:00:00 10,5 7,8 1 1 5 3 N 1010,3 0,0
22.02.2018 05:00:00 10,1 7,8 3 1 6 4 NNW 1010,4 0,0
22.02.2018 04:00:00 10,2 7,6 0 0 10 6 NNW 1010,6 0,2
22.02.2018 03:00:00 10,0 8,1 1 1 16 9 WNW 1010,9 3,8
22.02.2018 02:00:00 10,8 8,9 5 3 19 11 N 1010,8 3,4
22.02.2018 01:00:00 12,1 8,4 2 1 8 5 NNE 1010,2 -
22.02.2018 00:00:00 12,0 8,1 1 1 8 4 W 1010,3 0,0
21.02.2018 23:00:00 12,0 7,8 3 1 11 6 N 1010,2 0,0
21.02.2018 22:00:00 11,9 9,3 1 0 7 4 N 1009,8 0,0
21.02.2018 21:00:00 12,1 9,8 4 2 8 4 WNW 1009,5 0,1
21.02.2018 20:00:00 11,6 9,7 2 1 12 6 NNW 1009,2 0,8
21.02.2018 19:00:00 12,5 9,2 6 3 15 8 ENE 1008,4 -
21.02.2018 18:00:00 13,3 8,1 8 4 22 12 ENE 1007,4 0,4
21.02.2018 17:00:00 15,2 7,3 9 5 16 9 ESE 1006,2 0,0
21.02.2018 16:00:00 15,6 8,1 4 2 11 6 SSE 1005,8 0,0
21.02.2018 15:00:00 16,3 8,8 8 4 16 9 SE 1005,1 0,0
21.02.2018 14:00:00 15,7 8,4 10 5 18 10 SE 1006,1 0,0
21.02.2018 13:00:00 15,3 8,9 14 7 23 13 ESE 1007,1 -
21.02.2018 12:00:00 15,1 9,9 14 8 26 14 ESE 1007,3 0,0
21.02.2018 11:00:00 14,8 10,0 8 4 16 8 E 1008,0 0,0
21.02.2018 10:00:00 14,3 10,8 4 2 16 8 ENE 1008,1 0,0
21.02.2018 09:00:00 13,2 9,4 4 2 11 6 NE 1008,5 0,0
21.02.2018 08:00:00 12,6 8,5 2 1 10 5 NNE 1008,7 0,0
21.02.2018 07:00:00 11,9 7,6 2 1 6 4 NNE 1008,8 -
21.02.2018 06:00:00 11,6 8,4 2 1 6 3 ENE 1009,3 0,0
21.02.2018 05:00:00 11,3 9,9 0 0 6 3 NNE 1010,4 0,0
21.02.2018 04:00:00 11,6 10,3 1 0 6 3 ENE 1011,4 0,0
21.02.2018 03:00:00 12,8 11,3 2 1 6 3 N 1012,0 0,0
21.02.2018 02:00:00 13,3 12,0 2 1 5 3 NNE 1013,0 0,0
21.02.2018 01:00:00 12,4 10,8 3 1 6 3 N 1013,6 -
21.02.2018 00:00:00 12,4 10,6 1 1 5 3 N 1013,9 0,0
20.02.2018 23:00:00 13,1 11,3 1 0 4 2 N 1014,0 0,0
20.02.2018 22:00:00 13,4 11,7 0 0 5 3 NW 1014,2 0,0
20.02.2018 21:00:00 13,6 11,8 0 0 5 3 NNW 1014,4 0,0
20.02.2018 20:00:00 13,9 12,1 1 0 22 12 NNW 1014,7 0,0
20.02.2018 19:00:00 14,3 12,6 16 8 29 16 W 1014,6 -
20.02.2018 18:00:00 14,6 12,4 20 11 36 20 WSW 1014,3 0,0
20.02.2018 17:00:00 14,8 12,1 23 12 37 20 SW 1014,3 0,0
20.02.2018 16:00:00 15,0 12,1 20 11 39 21 WSW 1014,4 0,0
20.02.2018 15:00:00 15,0 11,8 21 11 34 18 WSW 1015,2 0,0
20.02.2018 14:00:00 14,9 10,9 22 12 32 17 WSW 1015,7 0,0
20.02.2018 13:00:00 14,9 11,4 21 11 30 16 WSW 1016,9 -
20.02.2018 12:00:00 15,2 9,8 14 8 23 12 WSW 1017,5 0,0
20.02.2018 11:00:00 14,9 9,4 11 6 15 8 W 1017,4 0,0
20.02.2018 10:00:00 16,5 10,3 1 1 6 3 S 1016,7 0,0
20.02.2018 09:00:00 13,6 9,7 2 1 8 4 NNE 1018,0 0,0
20.02.2018 08:00:00 10,6 8,4 2 1 6 4 N 1018,6 0,0
20.02.2018 07:00:00 10,6 8,4 3 2 6 3 N 1018,6 -
20.02.2018 06:00:00 11,1 9,2 3 2 5 3 NNE 1018,6 0,0
20.02.2018 05:00:00 11,2 9,3 3 2 6 4 N 1018,8 0,0
20.02.2018 04:00:00 11,2 9,4 4 2 8 4 N 1019,0 0,0
20.02.2018 03:00:00 11,6 10,2 1 1 7 4 N 1019,2 0,0
20.02.2018 02:00:00 12,2 10,8 3 1 7 4 N 1019,6 0,0
20.02.2018 01:00:00 12,0 10,5 0 0 4 2 ENE 1019,7 -
20.02.2018 00:00:00 12,2 10,4 2 1 5 3 N 1019,8 0,0
19.02.2018 23:00:00 12,3 10,8 2 1 6 3 NE 1019,9 0,0
19.02.2018 22:00:00 12,7 11,2 1 1 5 3 N 1020,0 0,0
19.02.2018 21:00:00 13,0 11,1 2 1 5 3 N 1019,7 0,0
19.02.2018 20:00:00 13,7 11,4 0 0 5 3 NW 1019,3 0,0
19.02.2018 19:00:00 14,5 11,7 1 0 8 4 N 1018,8 -
19.02.2018 18:00:00 15,0 11,0 2 1 6 4 SSE 1018,5 0,0
19.02.2018 17:00:00 16,5 11,4 2 1 8 5 SSE 1017,3 0,0
19.02.2018 16:00:00 16,8 12,1 2 1 7 4 S 1016,4 0,0
19.02.2018 15:00:00 15,7 12,4 2 1 8 5 S 1018,1 0,0
19.02.2018 14:00:00 15,6 12,5 3 1 8 4 SSE 1018,4 0,0
19.02.2018 13:00:00 15,7 12,1 3 2 9 5 SSE 1019,0 -
19.02.2018 12:00:00 13,9 11,6 5 3 10 5 NE 1020,3 0,0
19.02.2018 11:00:00 14,1 12,1 1 1 8 4 NW 1020,0 0,0
19.02.2018 10:00:00 13,5 11,7 5 3 10 5 W 1020,0 0,0
19.02.2018 09:00:00 13,1 12,0 2 1 8 4 ENE 1019,8 0,0
19.02.2018 08:00:00 13,0 11,9 2 1 4 2 NNW 1019,8 0,1
19.02.2018 07:00:00 13,5 11,7 1 1 6 4 ENE 1019,5 -
19.02.2018 06:00:00 13,7 11,8 2 1 10 5 NE 1019,5 0,0
19.02.2018 05:00:00 13,7 11,8 2 1 10 5 ENE 1019,3 0,0
19.02.2018 04:00:00 13,6 12,1 1 1 10 5 N 1019,5 0,0
19.02.2018 03:00:00 13,4 11,8 3 2 10 6 N 1020,2 0,2
19.02.2018 02:00:00 14,0 11,7 4 2 9 5 ENE 1020,6 0,0
19.02.2018 01:00:00 14,3 11,4 4 2 10 5 ENE 1020,9 -
19.02.2018 00:00:00 14,5 11,4 2 1 8 4 ENE 1021,1 0,0

tt = Température de l'air
td = dewpoint
ff = Vitesse du vent
fx = gusts
dd = Direction du vent
ppp = reduced air pressure
rr = Quantités de précipitations

stations d'obs. à proximité